createdAt,value
2022-10-22T00:00:07.085Z,17.67
2022-10-22T00:02:34.067Z,22.80
2022-10-22T00:05:01.138Z,19.10
2022-10-22T00:07:28.146Z,20.37
2022-10-22T00:09:55.163Z,18.60
2022-10-22T00:12:22.493Z,20.97
2022-10-22T00:14:49.600Z,17.17
2022-10-22T00:17:19.028Z,19.40
2022-10-22T00:19:45.931Z,17.03
2022-10-22T00:22:13.207Z,21.77
2022-10-22T00:24:41.483Z,19.17
2022-10-22T00:27:10.822Z,21.07
2022-10-22T00:29:37.822Z,20.13
2022-10-22T00:32:05.983Z,18.60
2022-10-22T00:34:33.517Z,19.50
2022-10-22T00:37:00.421Z,19.50
2022-10-22T00:39:28.553Z,20.97
2022-10-22T00:41:57.351Z,19.30
2022-10-22T00:45:07.161Z,20.10
2022-10-22T00:47:43.284Z,21.07
2022-10-22T00:50:21.223Z,22.90
2022-10-22T00:52:49.415Z,15.90
2022-10-22T00:55:17.686Z,19.30
2022-10-22T00:57:44.988Z,22.03
2022-10-22T01:00:12.407Z,22.23
2022-10-22T01:02:39.795Z,18.30
2022-10-22T01:05:07.635Z,17.67
2022-10-22T01:07:42.206Z,22.20
2022-10-22T01:10:21.394Z,19.97
2022-10-22T01:12:57.442Z,20.40
2022-10-22T01:16:08.862Z,18.13
2022-10-22T01:18:45.523Z,19.23
2022-10-22T01:21:34.022Z,20.57
2022-10-22T01:24:19.080Z,21.93
2022-10-22T01:27:24.332Z,19.30
2022-10-22T01:29:57.692Z,20.73
2022-10-22T01:32:26.553Z,21.00
2022-10-22T01:35:04.771Z,20.83
2022-10-22T01:37:36.657Z,23.40
2022-10-22T01:40:05.258Z,19.87
2022-10-22T01:42:32.299Z,21.37
2022-10-22T01:44:59.353Z,24.70
2022-10-22T01:47:42.049Z,18.90
2022-10-22T01:50:34.059Z,19.17
2022-10-22T01:53:13.089Z,17.33
2022-10-22T01:56:05.372Z,16.53
2022-10-22T01:58:58.379Z,22.13
2022-10-22T02:01:40.238Z,21.90
2022-10-22T02:04:42.292Z,16.00
2022-10-22T02:07:13.886Z,20.40
2022-10-22T02:09:41.861Z,17.67
2022-10-22T02:12:10.706Z,18.43
2022-10-22T02:14:41.581Z,20.50
2022-10-22T02:17:13.958Z,19.10
2022-10-22T02:20:03.362Z,17.13
2022-10-22T02:22:30.972Z,19.87
2022-10-22T02:24:57.890Z,15.60
2022-10-22T02:27:29.687Z,20.80
2022-10-22T02:30:11.486Z,19.53
2022-10-22T02:32:54.946Z,17.43
2022-10-22T02:35:24.523Z,18.93
2022-10-22T02:37:53.628Z,18.27
2022-10-22T02:40:21.126Z,18.93
2022-10-22T02:42:49.840Z,17.43
2022-10-22T02:45:18.626Z,18.37
2022-10-22T02:47:45.699Z,16.50
2022-10-22T02:50:12.620Z,14.77
2022-10-22T02:52:39.789Z,12.83
2022-10-22T02:55:07.144Z,17.23
2022-10-22T02:57:34.115Z,16.03
2022-10-22T03:00:01.003Z,17.20
2022-10-22T03:02:27.798Z,13.57
2022-10-22T03:04:54.634Z,16.27
2022-10-22T03:07:22.092Z,15.93
2022-10-22T03:09:48.988Z,16.17
2022-10-22T03:12:15.912Z,17.47
2022-10-22T03:14:42.981Z,17.77
2022-10-22T03:17:10.105Z,14.93
2022-10-22T03:19:36.942Z,17.23
2022-10-22T03:22:13.868Z,16.93
2022-10-22T03:24:46.217Z,17.90
2022-10-22T03:27:16.604Z,16.53
2022-10-22T03:29:44.379Z,19.97
2022-10-22T03:32:13.103Z,17.40
2022-10-22T03:34:40.131Z,19.43
2022-10-22T03:37:07.079Z,15.77
2022-10-22T03:39:36.235Z,18.10
2022-10-22T03:42:04.979Z,19.53
2022-10-22T03:44:32.531Z,20.93
2022-10-22T03:47:02.481Z,20.17
2022-10-22T03:49:29.971Z,19.70
2022-10-22T03:51:57.086Z,18.83
2022-10-22T03:54:24.147Z,19.37
2022-10-22T03:56:50.918Z,21.27
2022-10-22T03:59:18.500Z,22.37
2022-10-22T04:01:45.285Z,21.33
2022-10-22T04:04:12.127Z,20.57
2022-10-22T04:06:39.028Z,24.20
2022-10-22T04:09:05.959Z,21.53
2022-10-22T04:11:33.139Z,21.20
2022-10-22T04:14:00.218Z,20.60
2022-10-22T04:16:31.019Z,21.33
2022-10-22T04:18:58.300Z,21.13
2022-10-22T04:21:25.823Z,21.63
2022-10-22T04:23:53.706Z,21.47
2022-10-22T04:26:21.086Z,25.67
2022-10-22T04:28:49.238Z,22.73
2022-10-22T04:31:24.572Z,23.17
2022-10-22T04:33:59.664Z,22.63
2022-10-22T04:36:28.191Z,21.47
2022-10-22T04:38:57.967Z,20.87
2022-10-22T04:41:27.704Z,19.87
2022-10-22T04:43:56.000Z,21.83
2022-10-22T04:46:24.236Z,20.27
2022-10-22T04:48:52.442Z,24.50
2022-10-22T04:51:21.667Z,20.57
2022-10-22T04:53:48.837Z,19.50
2022-10-22T04:56:21.263Z,21.27
2022-10-22T04:58:49.583Z,24.47
2022-10-22T05:01:19.531Z,22.43
2022-10-22T05:03:48.249Z,21.70
2022-10-22T05:06:16.053Z,24.87
2022-10-22T05:08:43.698Z,24.13
2022-10-22T05:11:22.384Z,20.07
2022-10-22T05:13:49.472Z,20.93
2022-10-22T05:16:16.498Z,21.77
2022-10-22T05:18:44.697Z,19.20
2022-10-22T05:21:14.110Z,17.90
2022-10-22T05:23:41.758Z,21.73
2022-10-22T05:26:10.944Z,22.53
2022-10-22T05:28:38.308Z,22.77
2022-10-22T05:31:06.641Z,17.47
2022-10-22T05:33:34.161Z,19.00
2022-10-22T05:36:03.397Z,19.70
2022-10-22T05:38:30.274Z,24.03
2022-10-22T05:41:21.657Z,22.10
2022-10-22T05:43:48.583Z,22.10
2022-10-22T05:46:22.725Z,21.83
2022-10-22T05:48:54.964Z,24.97
2022-10-22T05:51:24.267Z,17.97
2022-10-22T05:53:54.393Z,20.17
2022-10-22T05:56:22.501Z,23.70
2022-10-22T05:58:50.651Z,21.83
2022-10-22T06:01:25.046Z,20.13
2022-10-22T06:03:58.782Z,17.47
2022-10-22T06:06:38.110Z,21.47
2022-10-22T06:09:13.512Z,25.43
2022-10-22T06:11:41.395Z,20.20
2022-10-22T06:14:09.380Z,20.23
2022-10-22T06:16:36.243Z,17.90
2022-10-22T06:19:03.276Z,19.93
2022-10-22T06:21:31.412Z,18.23
2022-10-22T06:23:59.964Z,18.90
2022-10-22T06:26:27.165Z,20.27
2022-10-22T06:28:56.047Z,20.27
2022-10-22T06:31:25.625Z,19.37
2022-10-22T06:33:53.262Z,18.17
2022-10-22T06:36:23.689Z,21.10
2022-10-22T06:38:55.288Z,21.50
2022-10-22T06:41:25.652Z,16.10
2022-10-22T06:43:57.327Z,17.33
2022-10-22T06:46:25.590Z,16.87
2022-10-22T06:48:57.621Z,17.37
2022-10-22T06:51:26.135Z,21.37
2022-10-22T06:53:54.513Z,21.53
2022-10-22T06:56:24.088Z,21.07
2022-10-22T06:58:52.191Z,17.40
2022-10-22T07:01:21.889Z,16.00
2022-10-22T07:03:51.396Z,17.97
2022-10-22T07:06:18.924Z,17.27
2022-10-22T07:08:45.682Z,15.33
2022-10-22T07:11:18.584Z,15.50
2022-10-22T07:13:46.402Z,16.43
2022-10-22T07:16:14.543Z,18.03
2022-10-22T07:18:42.515Z,15.83
2022-10-22T07:21:10.642Z,19.33
2022-10-22T07:23:37.860Z,16.03
2022-10-22T07:26:07.467Z,14.93
2022-10-22T07:28:39.790Z,18.43
2022-10-22T07:31:08.248Z,18.77
2022-10-22T07:33:35.511Z,17.33
2022-10-22T07:36:05.548Z,16.67
2022-10-22T07:38:32.673Z,16.63
2022-10-22T07:40:59.975Z,17.30
2022-10-22T07:43:26.987Z,21.50
2022-10-22T07:45:55.883Z,17.97
2022-10-22T07:48:23.868Z,17.93
2022-10-22T07:50:51.973Z,19.40
2022-10-22T07:53:18.780Z,18.87
2022-10-22T07:55:51.523Z,18.10
2022-10-22T07:58:19.565Z,19.33
2022-10-22T08:00:46.924Z,20.07
2022-10-22T08:03:14.970Z,22.13
2022-10-22T08:05:43.821Z,24.63
2022-10-22T08:08:12.169Z,23.67
2022-10-22T08:10:39.240Z,18.80
2022-10-22T08:13:07.148Z,18.47
2022-10-22T08:15:34.404Z,23.37
2022-10-22T08:18:01.334Z,19.83
2022-10-22T08:20:28.450Z,24.20
2022-10-22T08:22:55.258Z,20.00
2022-10-22T08:25:22.554Z,22.60
2022-10-22T08:27:49.390Z,24.27
2022-10-22T08:30:16.758Z,21.30
2022-10-22T08:32:43.743Z,20.50
2022-10-22T08:35:14.077Z,18.53
2022-10-22T08:37:43.939Z,20.50
2022-10-22T08:40:23.113Z,21.83
2022-10-22T08:43:11.709Z,20.27
2022-10-22T08:46:07.107Z,20.87
2022-10-22T08:48:48.339Z,18.83
2022-10-22T08:51:30.495Z,20.20
2022-10-22T08:54:09.020Z,17.97
2022-10-22T08:56:38.179Z,20.07
2022-10-22T08:59:21.363Z,18.97
2022-10-22T09:01:51.452Z,17.63
2022-10-22T09:04:36.392Z,20.47
2022-10-22T09:07:03.374Z,19.43
2022-10-22T09:09:36.879Z,18.33
2022-10-22T09:12:05.178Z,18.73
2022-10-22T09:14:32.198Z,19.47
2022-10-22T09:17:02.089Z,20.90
2022-10-22T09:19:41.200Z,23.60
2022-10-22T09:25:17.493Z,20.87
2022-10-22T09:27:44.578Z,23.90
2022-10-22T09:30:24.037Z,28.87
2022-10-22T09:33:22.620Z,22.77
2022-10-22T09:36:06.891Z,23.37
2022-10-22T09:38:40.097Z,19.85
2022-10-22T09:41:09.054Z,20.33
2022-10-22T09:43:36.474Z,28.90
2022-10-22T09:46:06.964Z,25.05
2022-10-22T09:48:41.225Z,22.30
2022-10-22T09:51:23.315Z,22.85
2022-10-22T09:54:02.023Z,20.77
2022-10-22T09:56:41.709Z,28.15
2022-10-22T09:59:17.038Z,22.27
2022-10-22T10:01:47.504Z,23.80
2022-10-22T10:04:16.137Z,28.15
2022-10-22T10:06:45.205Z,22.02
2022-10-22T10:09:21.238Z,22.20
2022-10-22T10:12:14.498Z,20.70
2022-10-22T10:15:23.454Z,22.08
2022-10-22T10:17:50.433Z,21.23
2022-10-22T10:20:39.144Z,27.77
2022-10-22T10:23:34.589Z,20.95
2022-10-22T10:26:10.154Z,26.75
2022-10-22T10:29:03.434Z,29.07
2022-10-22T10:31:45.266Z,25.03
2022-10-22T10:34:12.242Z,26.00
2022-10-22T10:37:04.630Z,24.93
2022-10-22T10:39:39.430Z,23.83
2022-10-22T10:42:20.657Z,23.85
2022-10-22T10:45:17.191Z,23.13
2022-10-22T10:48:09.949Z,24.92
2022-10-22T10:51:18.297Z,29.38
2022-10-22T10:54:03.514Z,23.90
2022-10-22T10:56:49.530Z,24.97
2022-10-22T10:59:54.686Z,31.33
2022-10-22T11:02:46.272Z,25.23
2022-10-22T11:05:52.919Z,27.02
2022-10-22T11:08:22.705Z,32.03
2022-10-22T11:11:08.421Z,30.85
2022-10-22T11:13:44.941Z,31.52
2022-10-22T11:16:32.734Z,29.88
2022-10-22T11:19:22.581Z,35.28
2022-10-22T11:22:16.132Z,33.60
2022-10-22T11:25:04.467Z,28.98
2022-10-22T11:27:42.438Z,31.67
2022-10-22T11:30:17.393Z,29.40
2022-10-22T11:32:48.663Z,30.38
2022-10-22T11:35:28.175Z,28.08
2022-10-22T11:37:57.242Z,28.08
2022-10-22T11:40:29.842Z,29.65
2022-10-22T11:43:07.201Z,32.58
2022-10-22T11:45:39.751Z,29.63
2022-10-22T11:48:27.412Z,29.58
2022-10-22T11:51:00.974Z,30.30
2022-10-22T11:53:34.761Z,28.58
2022-10-22T11:56:07.683Z,29.77
2022-10-22T11:58:39.345Z,28.47
2022-10-22T12:01:09.179Z,30.58
2022-10-22T12:03:41.017Z,27.58
2022-10-22T12:06:15.701Z,27.33
2022-10-22T12:08:47.161Z,31.92
2022-10-22T12:11:19.127Z,32.95
2022-10-22T12:14:02.176Z,31.02
2022-10-22T12:16:55.722Z,33.72
2022-10-22T12:19:23.183Z,29.47
2022-10-22T12:22:14.237Z,33.13
2022-10-22T12:24:44.902Z,32.13
2022-10-22T12:27:27.548Z,31.45
2022-10-22T12:29:57.039Z,30.55
2022-10-22T12:32:24.663Z,32.65
2022-10-22T12:34:52.839Z,29.23
2022-10-22T12:37:20.519Z,30.53
2022-10-22T12:39:47.445Z,33.33
2022-10-22T12:42:16.400Z,35.00
2022-10-22T12:44:46.313Z,34.22
2022-10-22T12:47:17.818Z,34.80
2022-10-22T12:49:48.595Z,32.45
2022-10-22T12:52:21.527Z,30.48
2022-10-22T12:54:52.573Z,33.60
2022-10-22T12:57:21.168Z,28.35
2022-10-22T12:59:51.439Z,33.88
2022-10-22T13:02:25.242Z,31.50
2022-10-22T13:05:13.951Z,33.60
2022-10-22T13:07:44.206Z,35.22
2022-10-22T13:10:20.671Z,37.57
2022-10-22T13:12:51.906Z,30.13
2022-10-22T13:15:20.534Z,36.03
2022-10-22T13:17:48.714Z,34.45
2022-10-22T13:20:24.591Z,33.03
2022-10-22T13:23:00.262Z,41.25
2022-10-22T13:25:30.411Z,39.72
2022-10-22T13:28:01.630Z,32.42
2022-10-22T13:30:32.564Z,35.72
2022-10-22T13:33:04.863Z,42.72
2022-10-22T13:35:34.554Z,36.80
2022-10-22T13:38:02.013Z,33.73
2022-10-22T13:40:28.907Z,35.47
2022-10-22T13:42:55.685Z,39.27
2022-10-22T13:45:22.633Z,37.42
2022-10-22T13:47:52.475Z,32.40
2022-10-22T13:50:21.162Z,30.90
2022-10-22T13:52:56.670Z,36.30
2022-10-22T13:55:27.199Z,31.13
2022-10-22T13:58:11.143Z,35.27
2022-10-22T14:00:44.042Z,33.42
2022-10-22T14:03:14.240Z,38.70
2022-10-22T14:05:41.714Z,31.45
2022-10-22T14:08:18.321Z,30.83
2022-10-22T14:10:45.210Z,35.08
2022-10-22T14:13:13.411Z,39.25
2022-10-22T14:15:41.072Z,38.40
2022-10-22T14:18:09.262Z,38.13
2022-10-22T14:20:37.874Z,35.97
2022-10-22T14:23:19.703Z,36.17
2022-10-22T14:25:46.804Z,41.80
2022-10-22T14:28:13.847Z,38.53
2022-10-22T14:30:41.260Z,41.87
2022-10-22T14:33:18.639Z,43.63
2022-10-22T14:35:47.419Z,39.67
2022-10-22T14:38:14.571Z,39.20
2022-10-22T14:40:42.991Z,43.13
2022-10-22T14:43:22.742Z,39.43
2022-10-22T14:45:50.005Z,43.17
2022-10-22T14:48:17.147Z,38.65
2022-10-22T14:50:45.598Z,42.90
2022-10-22T14:53:13.739Z,42.55
2022-10-22T14:55:41.270Z,48.27
2022-10-22T14:58:08.127Z,42.50
2022-10-22T15:00:36.884Z,48.47
2022-10-22T15:03:04.489Z,49.45
2022-10-22T15:05:31.612Z,46.83
2022-10-22T15:07:59.393Z,46.50
2022-10-22T15:10:26.808Z,41.93
2022-10-22T15:12:53.556Z,44.80
2022-10-22T15:15:22.717Z,53.83
2022-10-22T15:17:50.062Z,48.77
2022-10-22T15:20:16.947Z,51.60
2022-10-22T15:22:44.210Z,48.73
2022-10-22T15:25:13.754Z,53.60
2022-10-22T15:27:40.542Z,51.17
2022-10-22T15:30:08.359Z,51.05
2022-10-22T15:32:35.191Z,52.13
2022-10-22T15:35:02.445Z,54.83
2022-10-22T15:37:29.174Z,52.97
2022-10-22T15:39:56.010Z,53.47
2022-10-22T15:42:23.896Z,53.40
2022-10-22T15:44:58.009Z,58.43
2022-10-22T15:47:29.754Z,51.13
2022-10-22T15:49:56.700Z,52.90
2022-10-22T15:52:23.717Z,56.90
2022-10-22T15:54:50.500Z,66.10
2022-10-22T15:57:17.341Z,65.25
2022-10-22T15:59:44.256Z,70.23
2022-10-22T16:02:11.619Z,63.92
2022-10-22T16:04:39.043Z,67.45
2022-10-22T16:07:05.891Z,70.30
2022-10-22T16:09:32.651Z,72.73
2022-10-22T16:11:59.515Z,74.40
2022-10-22T16:14:28.644Z,77.80
2022-10-22T16:16:56.240Z,71.53
2022-10-22T16:19:24.582Z,81.53
2022-10-22T16:21:53.268Z,69.50
2022-10-22T16:24:21.195Z,76.27
2022-10-22T16:26:48.865Z,78.53
2022-10-22T16:29:15.795Z,92.68
2022-10-22T16:31:43.983Z,81.57
2022-10-22T16:34:11.231Z,72.55
2022-10-22T16:36:38.871Z,67.97
2022-10-22T16:39:06.712Z,67.80
2022-10-22T16:41:36.717Z,61.67
2022-10-22T16:44:06.531Z,63.20
2022-10-22T16:46:36.762Z,56.55
2022-10-22T16:49:03.732Z,56.47
2022-10-22T16:51:30.794Z,58.40
2022-10-22T16:53:58.325Z,58.30
2022-10-22T16:56:25.775Z,62.97
2022-10-22T16:58:55.171Z,68.20
2022-10-22T17:01:24.315Z,57.60
2022-10-22T17:03:51.253Z,63.40
2022-10-22T17:06:18.074Z,61.83
2022-10-22T17:08:45.055Z,57.37
2022-10-22T17:11:17.921Z,60.07
2022-10-22T17:13:49.751Z,65.80
2022-10-22T17:16:18.310Z,63.07
2022-10-22T17:21:19.069Z,65.47
2022-10-22T17:23:47.046Z,60.83
2022-10-22T17:26:21.003Z,64.30
2022-10-22T17:28:48.717Z,63.88
2022-10-22T17:31:19.105Z,61.72
2022-10-22T17:33:46.735Z,63.93
2022-10-22T17:36:13.875Z,66.77
2022-10-22T17:38:42.489Z,62.43
2022-10-22T17:41:17.429Z,62.70
2022-10-22T17:46:21.535Z,62.33
2022-10-22T17:48:56.197Z,63.30
2022-10-22T17:51:25.022Z,65.78
2022-10-22T17:53:51.994Z,67.05
2022-10-22T17:56:32.303Z,74.10
2022-10-22T17:59:01.681Z,66.47
2022-10-22T18:01:31.552Z,62.10
2022-10-22T18:04:07.984Z,67.70
2022-10-22T18:06:35.715Z,67.27
2022-10-22T18:09:07.706Z,71.73
2022-10-22T18:11:36.521Z,63.33
2022-10-22T18:14:04.520Z,71.83
2022-10-22T18:16:31.668Z,74.13
2022-10-22T18:18:59.255Z,66.67
2022-10-22T18:21:28.574Z,63.57
2022-10-22T18:23:55.901Z,70.57
2022-10-22T18:26:25.986Z,68.30
2022-10-22T18:28:54.807Z,68.97
2022-10-22T18:31:23.554Z,62.87
2022-10-22T18:33:50.768Z,66.28
2022-10-22T18:36:20.824Z,61.23
2022-10-22T18:38:55.806Z,64.77
2022-10-22T18:41:23.086Z,62.57
2022-10-22T18:43:51.541Z,72.07
2022-10-22T18:46:18.926Z,66.90
2022-10-22T18:48:47.038Z,67.25
2022-10-22T18:51:15.066Z,63.85
2022-10-22T18:53:42.394Z,69.20
2022-10-22T18:56:13.390Z,66.30
2022-10-22T18:58:41.912Z,60.80
2022-10-22T19:01:17.966Z,56.30
2022-10-22T19:03:45.711Z,53.43
2022-10-22T19:06:24.379Z,55.73
2022-10-22T19:08:51.526Z,44.57
2022-10-22T19:11:18.407Z,39.40
2022-10-22T19:13:45.248Z,35.47
2022-10-22T19:16:18.463Z,42.03
2022-10-22T19:18:45.568Z,40.50
2022-10-22T19:21:12.452Z,38.13
2022-10-22T19:23:39.260Z,36.13
2022-10-22T19:26:07.765Z,34.50
2022-10-22T19:28:34.554Z,41.50
2022-10-22T19:31:01.440Z,40.53
2022-10-22T19:33:28.237Z,33.58
2022-10-22T19:35:55.022Z,32.93
2022-10-22T19:38:23.434Z,38.47
2022-10-22T19:40:51.331Z,36.03
2022-10-22T19:43:18.948Z,30.43
2022-10-22T19:45:45.884Z,32.27
2022-10-22T19:48:12.624Z,31.83
2022-10-22T19:50:39.417Z,32.38
2022-10-22T19:53:06.131Z,30.10
2022-10-22T19:55:32.919Z,33.03
2022-10-22T19:57:59.676Z,32.05
2022-10-22T20:00:28.359Z,32.55
2022-10-22T20:02:55.427Z,35.23
2022-10-22T20:07:49.794Z,32.38
2022-10-22T20:10:16.637Z,31.13
2022-10-22T20:12:43.403Z,31.27
2022-10-22T20:15:10.421Z,31.57
2022-10-22T20:17:37.182Z,30.43
2022-10-22T20:20:04.288Z,30.37
2022-10-22T20:22:31.103Z,29.58
2022-10-22T20:24:57.885Z,27.77
2022-10-22T20:27:24.694Z,29.10
2022-10-22T20:29:51.493Z,28.80
2022-10-22T20:32:18.223Z,33.07
2022-10-22T20:34:44.984Z,33.27
2022-10-22T20:37:11.730Z,26.80
2022-10-22T20:39:38.486Z,31.83
2022-10-22T20:42:05.366Z,32.37
2022-10-22T20:44:32.250Z,32.33
2022-10-22T20:46:59.272Z,36.17
2022-10-22T20:49:26.774Z,34.80
2022-10-22T20:51:53.698Z,31.70
2022-10-22T20:54:20.793Z,31.42
2022-10-22T20:56:48.111Z,34.80
2022-10-22T20:59:15.366Z,19.27
2022-10-22T21:01:47.741Z,33.27
2022-10-22T21:04:15.929Z,31.88
2022-10-22T21:06:43.148Z,32.70
2022-10-22T21:09:12.679Z,31.97
2022-10-22T21:11:41.511Z,33.40
2022-10-22T21:14:09.966Z,32.57
2022-10-22T21:16:46.885Z,30.50
2022-10-22T21:19:13.671Z,25.07
2022-10-22T21:21:40.584Z,31.67
2022-10-22T21:24:08.576Z,31.33
2022-10-22T21:26:40.200Z,34.47
2022-10-22T21:29:08.279Z,24.67
2022-10-22T21:31:35.711Z,32.07
2022-10-22T21:34:02.812Z,23.80
2022-10-22T21:36:29.577Z,34.28
2022-10-22T21:38:56.575Z,29.53
2022-10-22T21:41:24.344Z,28.83
2022-10-22T21:43:51.912Z,31.20
2022-10-22T21:46:23.996Z,26.17
2022-10-22T21:48:55.448Z,22.23
2022-10-22T21:51:23.796Z,22.95
2022-10-22T21:56:29.358Z,28.40
2022-10-22T21:58:56.539Z,20.25
2022-10-22T22:01:23.503Z,27.77
2022-10-22T22:03:51.300Z,21.00
2022-10-22T22:06:21.783Z,26.67
2022-10-22T22:08:50.001Z,23.13
2022-10-22T22:11:19.474Z,27.47
2022-10-22T22:13:48.703Z,23.10
2022-10-22T22:16:23.948Z,28.70
2022-10-22T22:18:54.389Z,35.13
2022-10-22T22:21:22.432Z,36.60
2022-10-22T22:23:50.844Z,33.97
2022-10-22T22:26:25.226Z,34.47
2022-10-22T22:28:55.842Z,31.50
2022-10-22T22:31:25.218Z,28.60
2022-10-22T22:33:57.915Z,36.17
2022-10-22T22:36:24.804Z,35.13
2022-10-22T22:38:55.858Z,28.47
2022-10-22T22:41:23.201Z,32.30
2022-10-22T22:43:50.816Z,30.70
2022-10-22T22:46:18.001Z,33.33
2022-10-22T22:48:49.249Z,30.63
2022-10-22T22:51:16.671Z,30.20
2022-10-22T22:53:43.737Z,31.93
2022-10-22T22:56:13.934Z,25.00
2022-10-22T22:58:41.517Z,35.30
2022-10-22T23:01:19.004Z,34.17
2022-10-22T23:03:48.243Z,30.17
2022-10-22T23:06:16.469Z,32.17
2022-10-22T23:08:43.719Z,28.00
2022-10-22T23:11:13.422Z,28.20
2022-10-22T23:13:41.884Z,29.52
2022-10-22T23:16:19.057Z,26.88
2022-10-22T23:18:47.869Z,28.60
2022-10-22T23:21:17.735Z,30.17
2022-10-22T23:23:51.357Z,35.40
2022-10-22T23:26:32.807Z,29.53
2022-10-22T23:29:04.577Z,31.07
2022-10-22T23:31:31.616Z,30.10
2022-10-22T23:33:58.920Z,26.00
2022-10-22T23:36:26.477Z,26.85
2022-10-22T23:38:54.270Z,25.42
2022-10-22T23:41:21.790Z,25.07
2022-10-22T23:43:50.255Z,30.73
2022-10-22T23:46:17.461Z,25.80
2022-10-22T23:48:44.379Z,27.92
2022-10-22T23:51:14.089Z,29.63
2022-10-22T23:53:42.515Z,30.30
2022-10-22T23:56:12.653Z,25.33
2022-10-22T23:58:40.155Z,25.03
